PWSweather.com
Personal Weather Stations
Station Observations
WESTON01
WestonSuperMareGB BS22 8RT

WestonSuperMareGB BS22 8RT

Lat: 51.351508, Lon: -2.933373

Elevation: 15

Station Type: Fine Offset WH1080

http://www.westonweather.co.uk

High Low Average
Temperature 63.8°F17.7°C 50.6°F10.3°C 57.5°F14.2°C
Dew Point 62.0°F16.7°C 41.4°F5.2°C 52.5°F11.4°C
Winds 18.6 mph 29.9 kmh Calm Calm 9.0 mph SW14.5 kmh SW
Wind Gusts 26.2 mph42.2 kmh -- 14.0 mph22.5 kmh
Humidity 94% 69% 84%
Pressure 29.93 in1013.5 mb 29.58 in1001.7 mb -
Precipitation 0.74 in18.8 mm - -
Hour Temp Dew Point Humidity Winds Wind Gusts Pressure Precip Precip Rate Daily Precip Total
12:00 AM 53.5°F11.9°C 44.3°F6.8°C 71% 2.8 mph SSW4.5 kmh SSW 4.2 mph6.8 kmh 29.93 in1013.5 mb 0.00 in0.0 mm 0.00 in0.0 mm 0.00 in0.0 mm
12:05 AM 53.5°F11.9°C 44.3°F6.8°C 71% 3.2 mph SSW5.1 kmh SSW 4.2 mph6.8 kmh 29.93 in1013.5 mb 0.00 in0.0 mm 0.00 in0.0 mm 0.00 in0.0 mm
12:10 AM 53.5°F11.9°C 44.3°F6.8°C 71% 3.4 mph SSW5.5 kmh SSW 5.1 mph8.2 kmh 29.93 in1013.5 mb 0.00 in0.0 mm 0.00 in0.0 mm 0.00 in0.0 mm
12:15 AM 53.5°F11.9°C 44.0°F6.7°C 70% 3.2 mph SSW5.1 kmh SSW 5.1 mph8.2 kmh 29.93 in1013.5 mb 0.00 in0.0 mm 0.00 in0.0 mm 0.00 in0.0 mm
12:20 AM 53.3°F11.8°C 43.8°F6.6°C 70% 3.2 mph S5.1 kmh S 4.5 mph7.2 kmh 29.93 in1013.5 mb 0.00 in0.0 mm 0.00 in0.0 mm 0.00 in0.0 mm
12:25 AM 53.3°F11.8°C 43.8°F6.6°C 70% 3.2 mph S5.1 kmh S 4.5 mph7.2 kmh 29.93 in1013.5 mb 0.00 in0.0 mm 0.00 in0.0 mm 0.00 in0.0 mm
12:30 AM 53.3°F11.8°C 43.8°F6.6°C 70% 3.2 mph S5.1 kmh S 4.5 mph7.2 kmh 29.93 in1013.5 mb 0.00 in0.0 mm 0.00 in0.0 mm 0.00 in0.0 mm
12:35 AM 53.3°F11.8°C 43.8°F6.6°C 70% 2.8 mph SSW4.5 kmh SSW 4.2 mph6.8 kmh 29.93 in1013.5 mb 0.00 in0.0 mm 0.00 in0.0 mm 0.00 in0.0 mm
12:40 AM 53.3°F11.8°C 43.8°F6.6°C 70% 2.6 mph SSW4.2 kmh SSW 4.2 mph6.8 kmh 29.93 in1013.5 mb 0.00 in0.0 mm 0.00 in0.0 mm 0.00 in0.0 mm
12:45 AM 53.2°F11.8°C 43.6°F6.4°C 70% 2.8 mph SSW4.5 kmh SSW 5.1 mph8.2 kmh 29.93 in1013.5 mb 0.00 in0.0 mm 0.00 in0.0 mm 0.00 in0.0 mm
12:50 AM 53.2°F11.8°C 43.6°F6.4°C 70% 2.5 mph SSW4.0 kmh SSW 5.1 mph8.2 kmh 29.93 in1013.5 mb 0.00 in0.0 mm 0.00 in0.0 mm 0.00 in0.0 mm
12:55 AM 53.2°F11.8°C 43.6°F6.4°C 70% 1.4 mph SSW2.3 kmh SSW 3.6 mph5.8 kmh 29.90 in1012.5 mb 0.00 in0.0 mm 0.00 in0.0 mm 0.00 in0.0 mm
01:00 AM 53.0°F11.7°C 43.4°F6.3°C 70% 0.4 mph SW0.6 kmh SW 3.3 mph5.3 kmh 29.90 in1012.5 mb 0.00 in0.0 mm 0.00 in0.0 mm 0.00 in0.0 mm
01:05 AM 52.8°F11.6°C 43.3°F6.3°C 70% 1.6 mph SW2.6 kmh SW 3.9 mph6.3 kmh 29.90 in1012.5 mb 0.00 in0.0 mm 0.00 in0.0 mm 0.00 in0.0 mm
01:10 AM 52.8°F11.6°C 43.3°F6.3°C 70% 2.4 mph SSW3.9 kmh SSW 3.9 mph6.3 kmh 29.90 in1012.5 mb 0.00 in0.0 mm 0.00 in0.0 mm 0.00 in0.0 mm
01:15 AM 52.6°F11.4°C 43.1°F6.2°C 70% 2.0 mph S3.2 kmh S 3.9 mph6.3 kmh 29.90 in1012.5 mb 0.00 in0.0 mm 0.00 in0.0 mm 0.00 in0.0 mm
01:20 AM 52.4°F11.3°C 42.9°F6.1°C 70% 1.8 mph S2.9 kmh S 3.9 mph6.3 kmh 29.90 in1012.5 mb 0.00 in0.0 mm 0.00 in0.0 mm 0.00 in0.0 mm
01:25 AM 52.4°F11.3°C 42.9°F6.1°C 70% 1.6 mph SSW2.6 kmh SSW 2.1 mph3.4 kmh 29.90 in1012.5 mb 0.00 in0.0 mm 0.00 in0.0 mm 0.00 in0.0 mm
01:30 AM 52.3°F11.3°C 42.8°F6.0°C 70% 1.4 mph SSW2.3 kmh SSW 2.1 mph3.4 kmh 29.90 in1012.5 mb 0.00 in0.0 mm 0.00 in0.0 mm 0.00 in0.0 mm
01:35 AM 52.3°F11.3°C 42.8°F6.0°C 70% 0.9 mph SSW1.4 kmh SSW 2.1 mph3.4 kmh 29.90 in1012.5 mb 0.00 in0.0 mm 0.00 in0.0 mm 0.00 in0.0 mm
01:40 AM 52.1°F11.2°C 42.6°F5.9°C 70% 1.0 mph SSW1.6 kmh SSW 4.2 mph6.8 kmh 29.90 in1012.5 mb 0.00 in0.0 mm 0.00 in0.0 mm 0.00 in0.0 mm
01:45 AM 52.1°F11.2°C 42.6°F5.9°C 70% 1.8 mph SSW2.9 kmh SSW 4.2 mph6.8 kmh 29.90 in1012.5 mb 0.00 in0.0 mm 0.00 in0.0 mm 0.00 in0.0 mm
01:50 AM 51.9°F11.1°C 42.4°F5.8°C 70% 1.4 mph SSW2.3 kmh SSW 3.9 mph6.3 kmh 29.90 in1012.5 mb 0.00 in0.0 mm 0.00 in0.0 mm 0.00 in0.0 mm
01:55 AM 51.9°F11.1°C 42.4°F5.8°C 70% 1.2 mph S1.9 kmh S 2.1 mph3.4 kmh 29.90 in1012.5 mb 0.00 in0.0 mm 0.00 in0.0 mm 0.00 in0.0 mm
02:00 AM 51.7°F10.9°C 42.2°F5.7°C 70% 1.7 mph SSW2.7 kmh SSW 3.3 mph5.3 kmh 29.90 in1012.5 mb 0.00 in0.0 mm 0.00 in0.0 mm 0.00 in0.0 mm
02:05 AM 51.7°F10.9°C 42.2°F5.7°C 70% 2.8 mph S4.5 kmh S 4.2 mph6.8 kmh 29.90 in1012.5 mb 0.00 in0.0 mm 0.00 in0.0 mm 0.00 in0.0 mm
02:10 AM 51.7°F10.9°C 42.2°F5.7°C 70% 1.7 mph S2.7 kmh S 4.2 mph6.8 kmh 29.90 in1012.5 mb 0.00 in0.0 mm 0.00 in0.0 mm 0.00 in0.0 mm
02:15 AM 51.5°F10.8°C 42.1°F5.6°C 70% 2.2 mph S3.5 kmh S 5.4 mph8.7 kmh 29.90 in1012.5 mb 0.00 in0.0 mm 0.00 in0.0 mm 0.00 in0.0 mm
02:20 AM 51.5°F10.8°C 41.7°F5.4°C 69% 3.5 mph S5.6 kmh S 5.4 mph8.7 kmh 29.90 in1012.5 mb 0.00 in0.0 mm 0.00 in0.0 mm 0.00 in0.0 mm
02:25 AM 51.5°F10.8°C 41.7°F5.4°C 69% 1.8 mph S2.9 kmh S 4.2 mph6.8 kmh 29.90 in1012.5 mb 0.00 in0.0 mm 0.00 in0.0 mm 0.00 in0.0 mm
02:30 AM 51.3°F10.7°C 41.5°F5.3°C 69% 0.9 mph SSE1.4 kmh SSE 3.3 mph5.3 kmh 29.90 in1012.5 mb 0.00 in0.0 mm 0.00 in0.0 mm 0.00 in0.0 mm
02:35 AM 51.3°F10.7°C 41.9°F5.5°C 70% 0.6 mph S1.0 kmh S 3.3 mph5.3 kmh 29.90 in1012.5 mb 0.00 in0.0 mm 0.00 in0.0 mm 0.00 in0.0 mm
02:40 AM 51.2°F10.7°C 41.7°F5.4°C 70% Calm Calm -- 29.87 in1011.5 mb 0.00 in0.0 mm 0.00 in0.0 mm 0.00 in0.0 mm
02:45 AM 51.0°F10.6°C 41.5°F5.3°C 70% Calm Calm -- 29.87 in1011.5 mb 0.00 in0.0 mm 0.00 in0.0 mm 0.00 in0.0 mm
02:50 AM 51.0°F10.6°C 41.5°F5.3°C 70% 0.1 mph SW0.2 kmh SW 1.8 mph2.9 kmh 29.87 in1011.5 mb 0.00 in0.0 mm 0.00 in0.0 mm 0.00 in0.0 mm
02:55 AM 50.8°F10.4°C 41.4°F5.2°C 70% 0.1 mph SW0.2 kmh SW 1.8 mph2.9 kmh 29.87 in1011.5 mb 0.00 in0.0 mm 0.00 in0.0 mm 0.00 in0.0 mm
03:00 AM 50.8°F10.4°C 41.4°F5.2°C 70% 0.3 mph S0.5 kmh S 3.6 mph5.8 kmh 29.87 in1011.5 mb 0.00 in0.0 mm 0.00 in0.0 mm 0.00 in0.0 mm
03:05 AM 50.8°F10.4°C 41.4°F5.2°C 70% 1.2 mph S1.9 kmh S 3.6 mph5.8 kmh 29.87 in1011.5 mb 0.00 in0.0 mm 0.00 in0.0 mm 0.00 in0.0 mm
03:10 AM 50.8°F10.4°C 41.4°F5.2°C 70% 1.6 mph SSW2.6 kmh SSW 4.2 mph6.8 kmh 29.87 in1011.5 mb 0.00 in0.0 mm 0.00 in0.0 mm 0.00 in0.0 mm
03:15 AM 50.8°F10.4°C 41.4°F5.2°C 70% 2.3 mph SSW3.7 kmh SSW 4.2 mph6.8 kmh 29.87 in1011.5 mb 0.00 in0.0 mm 0.00 in0.0 mm 0.00 in0.0 mm
03:20 AM 50.8°F10.4°C 41.4°F5.2°C 70% 2.9 mph SSW4.7 kmh SSW 4.2 mph6.8 kmh 29.87 in1011.5 mb 0.00 in0.0 mm 0.00 in0.0 mm 0.00 in0.0 mm
03:25 AM 50.8°F10.4°C 41.4°F5.2°C 70% 3.1 mph S5.0 kmh S 4.8 mph7.7 kmh 29.87 in1011.5 mb 0.00 in0.0 mm 0.00 in0.0 mm 0.00 in0.0 mm
03:30 AM 50.8°F10.4°C 41.4°F5.2°C 70% 3.7 mph SSW6.0 kmh SSW 5.4 mph8.7 kmh 29.87 in1011.5 mb 0.00 in0.0 mm 0.00 in0.0 mm 0.00 in0.0 mm
03:35 AM 50.8°F10.4°C 41.4°F5.2°C 70% 4.0 mph SSW6.4 kmh SSW 5.4 mph8.7 kmh 29.87 in1011.5 mb 0.00 in0.0 mm 0.00 in0.0 mm 0.00 in0.0 mm
03:40 AM 50.8°F10.4°C 41.4°F5.2°C 70% 3.6 mph S5.8 kmh S 5.4 mph8.7 kmh 29.87 in1011.5 mb 0.00 in0.0 mm 0.00 in0.0 mm 0.00 in0.0 mm
03:45 AM 50.8°F10.4°C 41.4°F5.2°C 70% 3.0 mph SSW4.8 kmh SSW 5.4 mph8.7 kmh 29.87 in1011.5 mb 0.00 in0.0 mm 0.00 in0.0 mm 0.00 in0.0 mm
03:50 AM 50.8°F10.4°C 41.4°F5.2°C 70% 3.5 mph S5.6 kmh S 5.1 mph8.2 kmh 29.87 in1011.5 mb 0.00 in0.0 mm 0.00 in0.0 mm 0.00 in0.0 mm
03:55 AM 50.8°F10.4°C 41.7°F5.4°C 71% 4.5 mph S7.2 kmh S 5.7 mph9.2 kmh 29.87 in1011.5 mb 0.00 in0.0 mm 0.00 in0.0 mm 0.00 in0.0 mm
04:00 AM 50.8°F10.4°C 41.7°F5.4°C 71% 4.3 mph S6.9 kmh S 8.0 mph12.9 kmh 29.87 in1011.5 mb 0.00 in0.0 mm 0.00 in0.0 mm 0.00 in0.0 mm
04:05 AM 50.8°F10.4°C 41.7°F5.4°C 71% 3.8 mph S6.1 kmh S 8.0 mph12.9 kmh 29.87 in1011.5 mb 0.00 in0.0 mm 0.00 in0.0 mm 0.00 in0.0 mm
04:10 AM 50.8°F10.4°C 41.7°F5.4°C 71% 4.1 mph S6.6 kmh S 7.1 mph11.4 kmh 29.84 in1010.5 mb 0.00 in0.0 mm 0.00 in0.0 mm 0.00 in0.0 mm
04:15 AM 50.8°F10.4°C 41.7°F5.4°C 71% 4.4 mph S7.1 kmh S 7.1 mph11.4 kmh 29.84 in1010.5 mb 0.00 in0.0 mm 0.00 in0.0 mm 0.00 in0.0 mm
04:20 AM 50.8°F10.4°C 41.7°F5.4°C 71% 4.1 mph S6.6 kmh S 5.7 mph9.2 kmh 29.84 in1010.5 mb 0.00 in0.0 mm 0.00 in0.0 mm 0.00 in0.0 mm
04:25 AM 50.8°F10.4°C 41.7°F5.4°C 71% 4.3 mph SSW6.9 kmh SSW 5.4 mph8.7 kmh 29.84 in1010.5 mb 0.00 in0.0 mm 0.00 in0.0 mm 0.00 in0.0 mm
04:35 AM 50.8°F10.4°C 41.7°F5.4°C 71% 3.4 mph SSW5.5 kmh SSW 5.0 mph8.0 kmh 29.84 in1010.5 mb 0.00 in0.0 mm 0.00 in0.0 mm 0.00 in0.0 mm
04:40 AM 50.8°F10.4°C 41.7°F5.4°C 71% 2.7 mph SSW4.3 kmh SSW 3.9 mph6.3 kmh 29.84 in1010.5 mb 0.00 in0.0 mm 0.00 in0.0 mm 0.00 in0.0 mm
04:45 AM 50.6°F10.3°C 41.6°F5.3°C 71% 2.1 mph S3.4 kmh S 3.9 mph6.3 kmh 29.84 in1010.5 mb 0.00 in0.0 mm 0.00 in0.0 mm 0.00 in0.0 mm
04:50 AM 50.6°F10.3°C 41.6°F5.3°C 71% 1.9 mph SSW3.1 kmh SSW 4.2 mph6.8 kmh 29.84 in1010.5 mb 0.00 in0.0 mm 0.00 in0.0 mm 0.00 in0.0 mm
04:55 AM 50.8°F10.4°C 41.7°F5.4°C 71% 2.9 mph SSW4.7 kmh SSW 4.5 mph7.2 kmh 29.84 in1010.5 mb 0.00 in0.0 mm 0.00 in0.0 mm 0.00 in0.0 mm
05:00 AM 50.8°F10.4°C 41.7°F5.4°C 71% 3.1 mph SSW5.0 kmh SSW 4.5 mph7.2 kmh 29.84 in1010.5 mb 0.00 in0.0 mm 0.00 in0.0 mm 0.00 in0.0 mm
05:05 AM 51.0°F10.6°C 41.9°F5.5°C 71% 2.4 mph S3.9 kmh S 4.8 mph7.7 kmh 29.84 in1010.5 mb 0.00 in0.0 mm 0.00 in0.0 mm 0.00 in0.0 mm
05:10 AM 51.0°F10.6°C 41.9°F5.5°C 71% 3.0 mph S4.8 kmh S 8.0 mph12.9 kmh 29.84 in1010.5 mb 0.00 in0.0 mm 0.00 in0.0 mm 0.00 in0.0 mm
05:15 AM 51.0°F10.6°C 41.9°F5.5°C 71% 3.6 mph S5.8 kmh S 8.0 mph12.9 kmh 29.84 in1010.5 mb 0.00 in0.0 mm 0.00 in0.0 mm 0.00 in0.0 mm
05:20 AM 51.2°F10.7°C 42.1°F5.6°C 71% 3.2 mph SSE5.1 kmh SSE 4.2 mph6.8 kmh 29.84 in1010.5 mb 0.00 in0.0 mm 0.00 in0.0 mm 0.00 in0.0 mm
05:25 AM 51.2°F10.7°C 42.1°F5.6°C 71% 3.5 mph S5.6 kmh S 4.8 mph7.7 kmh 29.81 in1009.5 mb 0.00 in0.0 mm 0.00 in0.0 mm 0.00 in0.0 mm
05:30 AM 51.3°F10.7°C 42.3°F5.7°C 71% 3.3 mph S5.3 kmh S 4.8 mph7.7 kmh 29.81 in1009.5 mb 0.00 in0.0 mm 0.00 in0.0 mm 0.00 in0.0 mm
05:35 AM 51.5°F10.8°C 42.4°F5.8°C 71% 4.1 mph S6.6 kmh S 6.2 mph10.0 kmh 29.81 in1009.5 mb 0.00 in0.0 mm 0.00 in0.0 mm 0.00 in0.0 mm
05:40 AM 51.7°F10.9°C 42.6°F5.9°C 71% 4.2 mph S6.8 kmh S 6.2 mph10.0 kmh 29.81 in1009.5 mb 0.00 in0.0 mm 0.00 in0.0 mm 0.00 in0.0 mm
05:45 AM 51.7°F10.9°C 42.2°F5.7°C 70% 4.0 mph SSE6.4 kmh SSE 6.2 mph10.0 kmh 29.81 in1009.5 mb 0.00 in0.0 mm 0.00 in0.0 mm 0.00 in0.0 mm
05:50 AM 51.9°F11.1°C 42.4°F5.8°C 70% 3.0 mph S4.8 kmh S 5.7 mph9.2 kmh 29.81 in1009.5 mb 0.00 in0.0 mm 0.00 in0.0 mm 0.00 in0.0 mm
05:55 AM 51.9°F11.1°C 42.4°F5.8°C 70% 3.0 mph SSW4.8 kmh SSW 8.3 mph13.4 kmh 29.81 in1009.5 mb 0.00 in0.0 mm 0.00 in0.0 mm 0.00 in0.0 mm
06:00 AM 52.1°F11.2°C 42.6°F5.9°C 70% 3.8 mph S6.1 kmh S 8.3 mph13.4 kmh 29.81 in1009.5 mb 0.00 in0.0 mm 0.00 in0.0 mm 0.00 in0.0 mm
06:05 AM 52.1°F11.2°C 42.6°F5.9°C 70% 3.9 mph S6.3 kmh S 8.0 mph12.9 kmh 29.81 in1009.5 mb 0.00 in0.0 mm 0.00 in0.0 mm 0.00 in0.0 mm
06:10 AM 52.3°F11.3°C 42.8°F6.0°C 70% 4.3 mph S6.9 kmh S 8.0 mph12.9 kmh 29.81 in1009.5 mb 0.00 in0.0 mm 0.00 in0.0 mm 0.00 in0.0 mm
06:15 AM 52.3°F11.3°C 42.8°F6.0°C 70% 4.8 mph SSW7.7 kmh SSW 7.7 mph12.4 kmh 29.81 in1009.5 mb 0.00 in0.0 mm 0.00 in0.0 mm 0.00 in0.0 mm
06:20 AM 52.4°F11.3°C 42.9°F6.1°C 70% 3.8 mph S6.1 kmh S 6.5 mph10.5 kmh 29.81 in1009.5 mb 0.00 in0.0 mm 0.00 in0.0 mm 0.00 in0.0 mm
06:25 AM 52.4°F11.3°C 42.9°F6.1°C 70% 3.0 mph S4.8 kmh S 5.4 mph8.7 kmh 29.78 in1008.5 mb 0.00 in0.0 mm 0.00 in0.0 mm 0.00 in0.0 mm
06:30 AM 52.4°F11.3°C 43.3°F6.3°C 71% 3.7 mph S6.0 kmh S 5.1 mph8.2 kmh 29.78 in1008.5 mb 0.00 in0.0 mm 0.00 in0.0 mm 0.00 in0.0 mm
06:35 AM 52.4°F11.3°C 43.7°F6.5°C 72% 4.0 mph S6.4 kmh S 7.4 mph11.9 kmh 29.78 in1008.5 mb 0.00 in0.0 mm 0.00 in0.0 mm 0.00 in0.0 mm
06:40 AM 52.4°F11.3°C 43.7°F6.5°C 72% 5.3 mph SSW8.5 kmh SSW 8.6 mph13.8 kmh 29.78 in1008.5 mb 0.00 in0.0 mm 0.00 in0.0 mm 0.00 in0.0 mm
06:45 AM 52.6°F11.4°C 43.8°F6.6°C 72% 7.4 mph S11.9 kmh S 10.1 mph16.3 kmh 29.78 in1008.5 mb 0.00 in0.0 mm 0.00 in0.0 mm 0.00 in0.0 mm
06:50 AM 52.4°F11.3°C 44.0°F6.7°C 73% 6.8 mph S10.9 kmh S 10.4 mph16.7 kmh 29.78 in1008.5 mb 0.00 in0.0 mm 0.00 in0.0 mm 0.00 in0.0 mm
06:55 AM 52.4°F11.3°C 44.0°F6.7°C 73% 6.9 mph SSW11.1 kmh SSW 10.4 mph16.7 kmh 29.78 in1008.5 mb 0.00 in0.0 mm 0.00 in0.0 mm 0.00 in0.0 mm
07:00 AM 52.3°F11.3°C 44.2°F6.8°C 74% 7.2 mph SSW11.6 kmh SSW 10.4 mph16.7 kmh 29.78 in1008.5 mb 0.00 in0.0 mm 0.00 in0.0 mm 0.00 in0.0 mm
07:05 AM 52.3°F11.3°C 44.6°F7.0°C 75% 5.2 mph S8.4 kmh S 8.0 mph12.9 kmh 29.78 in1008.5 mb 0.00 in0.0 mm 0.00 in0.0 mm 0.00 in0.0 mm
07:10 AM 52.3°F11.3°C 44.6°F7.0°C 75% 3.6 mph S5.8 kmh S 5.4 mph8.7 kmh 29.78 in1008.5 mb 0.00 in0.0 mm 0.00 in0.0 mm 0.00 in0.0 mm
07:15 AM 52.3°F11.3°C 44.9°F7.2°C 76% 3.3 mph S5.3 kmh S 4.5 mph7.2 kmh 29.78 in1008.5 mb 0.00 in0.0 mm 0.00 in0.0 mm 0.00 in0.0 mm
07:20 AM 52.3°F11.3°C 45.3°F7.4°C 77% 4.1 mph S6.6 kmh S 7.1 mph11.4 kmh 29.78 in1008.5 mb 0.00 in0.0 mm 0.00 in0.0 mm 0.00 in0.0 mm
07:25 AM 52.3°F11.3°C 45.3°F7.4°C 77% 4.9 mph S7.9 kmh S 7.1 mph11.4 kmh 29.78 in1008.5 mb 0.00 in0.0 mm 0.00 in0.0 mm 0.00 in0.0 mm
07:30 AM 52.3°F11.3°C 45.6°F7.6°C 78% 5.2 mph S8.4 kmh S 8.0 mph12.9 kmh 29.78 in1008.5 mb 0.00 in0.0 mm 0.00 in0.0 mm 0.00 in0.0 mm
07:35 AM 52.3°F11.3°C 45.9°F7.7°C 79% 4.8 mph S7.7 kmh S 8.0 mph12.9 kmh 29.78 in1008.5 mb 0.00 in0.0 mm 0.00 in0.0 mm 0.00 in0.0 mm
07:40 AM 52.3°F11.3°C 45.9°F7.7°C 79% 4.1 mph SSW6.6 kmh SSW 7.4 mph11.9 kmh 29.75 in1007.5 mb 0.00 in0.0 mm 0.00 in0.0 mm 0.00 in0.0 mm
07:45 AM 52.3°F11.3°C 45.9°F7.7°C 79% 5.4 mph S8.7 kmh S 8.9 mph14.3 kmh 29.75 in1007.5 mb 0.00 in0.0 mm 0.00 in0.0 mm 0.00 in0.0 mm
07:50 AM 52.3°F11.3°C 46.3°F7.9°C 80% 5.9 mph S9.5 kmh S 8.9 mph14.3 kmh 29.75 in1007.5 mb 0.00 in0.0 mm 0.00 in0.0 mm 0.00 in0.0 mm
07:55 AM 52.4°F11.3°C 46.8°F8.2°C 81% 4.4 mph SE7.1 kmh SE 8.6 mph13.8 kmh 29.78 in1008.5 mb 0.00 in0.0 mm 0.00 in0.0 mm 0.00 in0.0 mm
08:00 AM 52.4°F11.3°C 46.4°F8.0°C 80% 4.6 mph SSE7.4 kmh SSE 7.7 mph12.4 kmh 29.78 in1008.5 mb 0.00 in0.0 mm 0.00 in0.0 mm 0.00 in0.0 mm
08:05 AM 52.4°F11.3°C 46.8°F8.2°C 81% 5.7 mph SSE9.2 kmh SSE 7.7 mph12.4 kmh 29.78 in1008.5 mb 0.04 in1.0 mm 0.48 in12.2 mm 0.04 in1.0 mm
08:10 AM 52.6°F11.4°C 46.9°F8.3°C 81% 5.3 mph SSE8.5 kmh SSE 7.7 mph12.4 kmh 29.78 in1008.5 mb 0.04 in1.0 mm 0.00 in0.0 mm 0.04 in1.0 mm
08:15 AM 52.6°F11.4°C 46.9°F8.3°C 81% 4.6 mph SSE7.4 kmh SSE 6.5 mph10.5 kmh 29.78 in1008.5 mb 0.04 in1.0 mm 0.00 in0.0 mm 0.04 in1.0 mm
08:20 AM 52.8°F11.6°C 47.4°F8.6°C 82% 6.0 mph SE9.7 kmh SE 15.2 mph24.5 kmh 29.78 in1008.5 mb 0.04 in1.0 mm 0.00 in0.0 mm 0.04 in1.0 mm
08:25 AM 53.0°F11.7°C 47.6°F8.7°C 82% 6.8 mph SSE10.9 kmh SSE 15.2 mph24.5 kmh 29.73 in1006.8 mb 0.04 in1.0 mm 0.00 in0.0 mm 0.04 in1.0 mm
08:30 AM 53.0°F11.7°C 47.6°F8.7°C 82% 5.3 mph S8.5 kmh S 15.2 mph24.5 kmh 29.73 in1006.8 mb 0.04 in1.0 mm 0.00 in0.0 mm 0.04 in1.0 mm
08:35 AM 53.0°F11.7°C 47.6°F8.7°C 82% 7.2 mph SSW11.6 kmh SSW 15.8 mph25.4 kmh 29.73 in1006.8 mb 0.04 in1.0 mm 0.00 in0.0 mm 0.04 in1.0 mm
08:40 AM 53.2°F11.8°C 47.8°F8.8°C 82% 9.2 mph SSW14.8 kmh SSW 15.8 mph25.4 kmh 29.73 in1006.8 mb 0.04 in1.0 mm 0.00 in0.0 mm 0.04 in1.0 mm
08:45 AM 53.2°F11.8°C 48.1°F8.9°C 83% 6.8 mph S10.9 kmh S 11.3 mph18.2 kmh 29.73 in1006.8 mb 0.04 in1.0 mm 0.00 in0.0 mm 0.04 in1.0 mm
08:50 AM 53.3°F11.8°C 48.3°F9.1°C 83% 7.0 mph S11.3 kmh S 13.7 mph22.0 kmh 29.73 in1006.8 mb 0.04 in1.0 mm 0.00 in0.0 mm 0.04 in1.0 mm
08:55 AM 53.3°F11.8°C 48.3°F9.1°C 83% 8.3 mph S13.4 kmh S 15.2 mph24.5 kmh 29.70 in1005.8 mb 0.04 in1.0 mm 0.00 in0.0 mm 0.04 in1.0 mm
09:00 AM 53.5°F11.9°C 48.8°F9.3°C 84% 10.1 mph S16.3 kmh S 15.2 mph24.5 kmh 29.70 in1005.8 mb 0.04 in1.0 mm 0.00 in0.0 mm 0.04 in1.0 mm
09:05 AM 53.5°F11.9°C 48.8°F9.3°C 84% 10.5 mph SSW16.9 kmh SSW 15.2 mph24.5 kmh 29.70 in1005.8 mb 0.00 in0.0 mm 0.00 in0.0 mm 0.04 in1.0 mm
09:10 AM 53.7°F12.1°C 49.0°F9.4°C 84% 10.9 mph S17.5 kmh S 14.3 mph23.0 kmh 29.70 in1005.8 mb 0.00 in0.0 mm 0.00 in0.0 mm 0.04 in1.0 mm
09:15 AM 54.0°F12.2°C 49.3°F9.6°C 84% 12.0 mph S19.3 kmh S 16.4 mph26.4 kmh 29.70 in1005.8 mb 0.00 in0.0 mm 0.00 in0.0 mm 0.04 in1.0 mm
09:20 AM 54.2°F12.3°C 49.5°F9.7°C 84% 12.0 mph SSW19.3 kmh SSW 16.4 mph26.4 kmh 29.70 in1005.8 mb 0.04 in1.0 mm 0.48 in12.2 mm 0.08 in2.0 mm
09:25 AM 54.4°F12.4°C 50.0°F10.0°C 85% 12.0 mph SSW19.3 kmh SSW 18.7 mph30.1 kmh 29.70 in1005.8 mb 0.04 in1.0 mm 0.00 in0.0 mm 0.08 in2.0 mm
09:30 AM 54.8°F12.7°C 50.3°F10.2°C 85% 14.1 mph S22.7 kmh S 20.2 mph32.5 kmh 29.70 in1005.8 mb 0.04 in1.0 mm 0.00 in0.0 mm 0.08 in2.0 mm
09:35 AM 54.8°F12.7°C 50.3°F10.2°C 85% 13.5 mph S21.7 kmh S 20.2 mph32.5 kmh 29.70 in1005.8 mb 0.04 in1.0 mm 0.00 in0.0 mm 0.08 in2.0 mm
09:40 AM 55.1°F12.8°C 51.0°F10.6°C 86% 11.6 mph SSW18.7 kmh SSW 14.0 mph22.5 kmh 29.67 in1004.7 mb 0.04 in1.0 mm 0.00 in0.0 mm 0.08 in2.0 mm
09:45 AM 55.3°F12.9°C 51.2°F10.7°C 86% 12.8 mph SW20.6 kmh SW 17.0 mph27.4 kmh 29.67 in1004.7 mb 0.04 in1.0 mm 0.00 in0.0 mm 0.08 in2.0 mm
09:50 AM 55.5°F13.1°C 51.4°F10.8°C 86% 12.7 mph SSW20.4 kmh SSW 17.0 mph27.4 kmh 29.67 in1004.7 mb 0.04 in1.0 mm 0.00 in0.0 mm 0.08 in2.0 mm
09:55 AM 55.7°F13.2°C 51.9°F11.1°C 87% 12.8 mph SSW20.6 kmh SSW 20.5 mph33.0 kmh 29.67 in1004.7 mb 0.08 in2.0 mm 0.48 in12.2 mm 0.12 in3.0 mm
10:00 AM 55.8°F13.2°C 52.0°F11.1°C 87% 14.3 mph S23.0 kmh S 20.5 mph33.0 kmh 29.67 in1004.7 mb 0.08 in2.0 mm 0.00 in0.0 mm 0.12 in3.0 mm
10:05 AM 56.0°F13.3°C 52.2°F11.2°C 87% 13.3 mph S21.4 kmh S 17.6 mph28.3 kmh 29.67 in1004.7 mb 0.08 in2.0 mm 0.00 in0.0 mm 0.12 in3.0 mm
10:10 AM 56.4°F13.6°C 52.9°F11.6°C 88% 13.0 mph S20.9 kmh S 16.1 mph25.9 kmh 29.67 in1004.7 mb 0.08 in2.0 mm 0.00 in0.0 mm 0.12 in3.0 mm
10:15 AM 56.6°F13.7°C 53.1°F11.7°C 88% 12.6 mph SSW20.3 kmh SSW 17.6 mph28.3 kmh 29.67 in1004.7 mb 0.08 in2.0 mm 0.00 in0.0 mm 0.12 in3.0 mm
10:20 AM 56.6°F13.7°C 53.1°F11.7°C 88% 12.2 mph SW19.6 kmh SW 17.6 mph28.3 kmh 29.67 in1004.7 mb 0.08 in2.0 mm 0.00 in0.0 mm 0.16 in4.1 mm
10:25 AM 56.6°F13.7°C 53.1°F11.7°C 88% 11.5 mph S18.5 kmh S 17.6 mph28.3 kmh 29.67 in1004.7 mb 0.08 in2.0 mm 0.00 in0.0 mm 0.16 in4.1 mm
10:30 AM 56.6°F13.7°C 53.1°F11.7°C 88% 12.3 mph S19.8 kmh S 17.6 mph28.3 kmh 29.67 in1004.7 mb 0.08 in2.0 mm 0.00 in0.0 mm 0.16 in4.1 mm
10:35 AM 56.6°F13.7°C 53.1°F11.7°C 88% 14.8 mph S23.8 kmh S 23.8 mph38.3 kmh 29.67 in1004.7 mb 0.08 in2.0 mm 0.00 in0.0 mm 0.16 in4.1 mm
10:40 AM 56.6°F13.7°C 53.4°F11.9°C 89% 14.3 mph S23.0 kmh S 23.8 mph38.3 kmh 29.67 in1004.7 mb 0.12 in3.0 mm 0.48 in12.2 mm 0.20 in5.1 mm
10:45 AM 56.8°F13.8°C 53.5°F11.9°C 89% 12.3 mph S19.8 kmh S 15.2 mph24.5 kmh 29.67 in1004.7 mb 0.12 in3.0 mm 0.00 in0.0 mm 0.20 in5.1 mm
10:50 AM 56.8°F13.8°C 53.5°F11.9°C 89% 12.9 mph S20.8 kmh S 18.7 mph30.1 kmh 29.67 in1004.7 mb 0.12 in3.0 mm 0.00 in0.0 mm 0.20 in5.1 mm
10:55 AM 56.8°F13.8°C 53.5°F11.9°C 89% 12.6 mph SSW20.3 kmh SSW 19.3 mph31.1 kmh 29.67 in1004.7 mb 0.12 in3.0 mm 0.00 in0.0 mm 0.24 in6.1 mm
11:00 AM 56.8°F13.8°C 53.5°F11.9°C 89% 13.3 mph S21.4 kmh S 19.3 mph31.1 kmh 29.67 in1004.7 mb 0.12 in3.0 mm 0.00 in0.0 mm 0.24 in6.1 mm
11:05 AM 56.8°F13.8°C 53.5°F11.9°C 89% 11.5 mph SSW18.5 kmh SSW 17.0 mph27.4 kmh 29.67 in1004.7 mb 0.12 in3.0 mm 0.00 in0.0 mm 0.24 in6.1 mm
11:10 AM 56.9°F13.8°C 54.0°F12.2°C 90% 10.5 mph SSW16.9 kmh SSW 14.3 mph23.0 kmh 29.67 in1004.7 mb 0.12 in3.0 mm 0.00 in0.0 mm 0.24 in6.1 mm
11:15 AM 56.9°F13.8°C 54.0°F12.2°C 90% 10.3 mph S16.6 kmh S 20.2 mph32.5 kmh 29.67 in1004.7 mb 0.16 in4.1 mm 0.48 in12.2 mm 0.28 in7.1 mm
11:20 AM 56.9°F13.8°C 54.0°F12.2°C 90% 11.2 mph S18.0 kmh S 20.2 mph32.5 kmh 29.67 in1004.7 mb 0.17 in4.3 mm 0.12 in3.0 mm 0.33 in8.4 mm
11:25 AM 56.9°F13.8°C 54.0°F12.2°C 90% 13.2 mph S21.2 kmh S 19.3 mph31.1 kmh 29.64 in1003.7 mb 0.17 in4.3 mm 0.00 in0.0 mm 0.33 in8.4 mm
11:30 AM 57.1°F13.9°C 54.2°F12.3°C 90% 13.4 mph S21.6 kmh S 19.3 mph31.1 kmh 29.64 in1003.7 mb 0.17 in4.3 mm 0.00 in0.0 mm 0.33 in8.4 mm
11:35 AM 57.1°F13.9°C 54.2°F12.3°C 90% 13.0 mph S20.9 kmh S 19.3 mph31.1 kmh 29.64 in1003.7 mb 0.17 in4.3 mm 0.00 in0.0 mm 0.33 in8.4 mm
11:40 AM 57.3°F14.1°C 54.4°F12.4°C 90% 13.0 mph S20.9 kmh S 17.6 mph28.3 kmh 29.61 in1002.7 mb 0.17 in4.3 mm 0.00 in0.0 mm 0.37 in9.4 mm
11:45 AM 57.3°F14.1°C 54.7°F12.6°C 91% 12.5 mph SSW20.1 kmh SSW 17.6 mph28.3 kmh 29.61 in1002.7 mb 0.17 in4.3 mm 0.00 in0.0 mm 0.37 in9.4 mm
11:50 AM 57.3°F14.1°C 54.7°F12.6°C 91% 11.3 mph S18.2 kmh S 19.0 mph30.6 kmh 29.61 in1002.7 mb 0.17 in4.3 mm 0.00 in0.0 mm 0.37 in9.4 mm
11:55 AM 57.5°F14.2°C 54.9°F12.7°C 91% 13.3 mph S21.4 kmh S 19.0 mph30.6 kmh 29.61 in1002.7 mb 0.17 in4.3 mm 0.00 in0.0 mm 0.41 in10.4 mm
12:00 PM 57.7°F14.3°C 55.0°F12.8°C 91% 12.4 mph S20.0 kmh S 19.0 mph30.6 kmh 29.61 in1002.7 mb 0.17 in4.3 mm 0.00 in0.0 mm 0.41 in10.4 mm
12:05 PM 57.8°F14.3°C 55.2°F12.9°C 91% 10.9 mph SSW17.5 kmh SSW 16.4 mph26.4 kmh 29.61 in1002.7 mb 0.17 in4.3 mm 0.00 in0.0 mm 0.41 in10.4 mm
12:10 PM 58.0°F14.4°C 55.4°F13.0°C 91% 11.9 mph S19.2 kmh S 16.4 mph26.4 kmh 29.58 in1001.7 mb 0.21 in5.3 mm 0.48 in12.2 mm 0.45 in11.4 mm
12:15 PM 58.2°F14.6°C 55.6°F13.1°C 91% 13.0 mph S20.9 kmh S 17.3 mph27.8 kmh 29.58 in1001.7 mb 0.17 in4.3 mm 0.00 in0.0 mm 0.45 in11.4 mm
12:20 PM 58.2°F14.6°C 55.6°F13.1°C 91% 13.2 mph S21.2 kmh S 17.3 mph27.8 kmh 29.58 in1001.7 mb 0.16 in4.1 mm 0.00 in0.0 mm 0.49 in12.4 mm
12:25 PM 58.4°F14.7°C 56.1°F13.4°C 92% 12.1 mph SSW19.5 kmh SSW 18.4 mph29.6 kmh 29.58 in1001.7 mb 0.16 in4.1 mm 0.00 in0.0 mm 0.49 in12.4 mm
12:30 PM 58.5°F14.7°C 56.2°F13.4°C 92% 12.6 mph SSW20.3 kmh SSW 18.4 mph29.6 kmh 29.58 in1001.7 mb 0.20 in5.1 mm 0.48 in12.2 mm 0.53 in13.5 mm
12:35 PM 58.7°F14.8°C 56.4°F13.6°C 92% 13.2 mph SSW21.2 kmh SSW 17.6 mph28.3 kmh 29.58 in1001.7 mb 0.20 in5.1 mm 0.00 in0.0 mm 0.53 in13.5 mm
12:40 PM 59.1°F15.1°C 56.8°F13.8°C 92% 11.7 mph S18.8 kmh S 17.3 mph27.8 kmh 29.58 in1001.7 mb 0.21 in5.3 mm 0.12 in3.0 mm 0.58 in14.7 mm
12:45 PM 59.3°F15.2°C 56.9°F13.8°C 92% 11.5 mph S18.5 kmh S 21.4 mph34.4 kmh 29.58 in1001.7 mb 0.21 in5.3 mm 0.00 in0.0 mm 0.58 in14.7 mm
12:50 PM 59.5°F15.3°C 57.1°F13.9°C 92% 13.1 mph S21.1 kmh S 21.4 mph34.4 kmh 29.58 in1001.7 mb 0.21 in5.3 mm 0.00 in0.0 mm 0.58 in14.7 mm
12:55 PM 59.6°F15.3°C 57.3°F14.1°C 92% 13.9 mph S22.4 kmh S 17.0 mph27.4 kmh 29.58 in1001.7 mb 0.17 in4.3 mm 0.00 in0.0 mm 0.58 in14.7 mm
01:00 PM 60.0°F15.6°C 57.7°F14.3°C 92% 13.6 mph S21.9 kmh S 17.0 mph27.4 kmh 29.58 in1001.7 mb 0.17 in4.3 mm 0.00 in0.0 mm 0.58 in14.7 mm
01:05 PM 60.3°F15.7°C 58.3°F14.6°C 93% 11.3 mph SSW18.2 kmh SSW 14.6 mph23.5 kmh 29.58 in1001.7 mb 0.17 in4.3 mm 0.00 in0.0 mm 0.58 in14.7 mm
01:10 PM 60.7°F15.9°C 58.7°F14.8°C 93% 9.8 mph SSW15.8 kmh SSW 14.3 mph23.0 kmh 29.58 in1001.7 mb 0.13 in3.3 mm 0.00 in0.0 mm 0.58 in14.7 mm
01:15 PM 61.1°F16.2°C 59.0°F15.0°C 93% 8.6 mph S13.8 kmh S 13.7 mph22.0 kmh 29.58 in1001.7 mb 0.13 in3.3 mm 0.00 in0.0 mm 0.58 in14.7 mm
01:20 PM 61.4°F16.3°C 59.4°F15.2°C 93% 7.7 mph S12.4 kmh S 10.4 mph16.7 kmh 29.58 in1001.7 mb 0.09 in2.3 mm 0.00 in0.0 mm 0.58 in14.7 mm
01:25 PM 62.0°F16.7°C 59.9°F15.5°C 93% 8.6 mph SSW13.8 kmh SSW 14.0 mph22.5 kmh 29.58 in1001.7 mb 0.09 in2.3 mm 0.00 in0.0 mm 0.58 in14.7 mm
01:30 PM 62.3°F16.8°C 60.3°F15.7°C 93% 8.9 mph SSW14.3 kmh SSW 14.0 mph22.5 kmh 29.58 in1001.7 mb 0.05 in1.3 mm 0.00 in0.0 mm 0.58 in14.7 mm
01:35 PM 62.5°F16.9°C 60.5°F15.8°C 93% 6.4 mph SW10.3 kmh SW 14.0 mph22.5 kmh 29.58 in1001.7 mb 0.05 in1.3 mm 0.00 in0.0 mm 0.58 in14.7 mm
01:40 PM 62.7°F17.1°C 60.6°F15.9°C 93% 5.2 mph SW8.4 kmh SW 7.4 mph11.9 kmh 29.58 in1001.7 mb 0.00 in0.0 mm 0.00 in0.0 mm 0.58 in14.7 mm
01:45 PM 62.9°F17.2°C 61.1°F16.2°C 94% 6.0 mph SW9.7 kmh SW 7.4 mph11.9 kmh 29.58 in1001.7 mb 0.03 in0.8 mm 0.36 in9.1 mm 0.61 in15.5 mm
01:50 PM 63.2°F17.3°C 61.2°F16.2°C 93% 7.3 mph SSW11.7 kmh SSW 11.3 mph18.2 kmh 29.58 in1001.7 mb 0.03 in0.8 mm 0.00 in0.0 mm 0.61 in15.5 mm
01:55 PM 63.4°F17.4°C 61.4°F16.3°C 93% 7.4 mph SW11.9 kmh SW 11.3 mph18.2 kmh 29.58 in1001.7 mb 0.03 in0.8 mm 0.00 in0.0 mm 0.61 in15.5 mm
02:00 PM 63.6°F17.6°C 61.8°F16.6°C 94% 5.6 mph SW9.0 kmh SW 8.0 mph12.9 kmh 29.58 in1001.7 mb 0.03 in0.8 mm 0.00 in0.0 mm 0.61 in15.5 mm
02:05 PM 63.8°F17.7°C 62.0°F16.7°C 94% 6.6 mph SW10.6 kmh SW 12.5 mph20.1 kmh 29.58 in1001.7 mb 0.03 in0.8 mm 0.00 in0.0 mm 0.61 in15.5 mm
02:10 PM 63.8°F17.7°C 62.0°F16.7°C 94% 7.8 mph SW12.6 kmh SW 12.5 mph20.1 kmh 29.58 in1001.7 mb 0.03 in0.8 mm 0.00 in0.0 mm 0.61 in15.5 mm
02:15 PM 63.8°F17.7°C 62.0°F16.7°C 94% 6.1 mph SW9.8 kmh SW 9.5 mph15.3 kmh 29.58 in1001.7 mb 0.03 in0.8 mm 0.00 in0.0 mm 0.61 in15.5 mm
02:20 PM 63.8°F17.7°C 62.0°F16.7°C 94% 4.5 mph SW7.2 kmh SW 8.6 mph13.8 kmh 29.58 in1001.7 mb 0.08 in2.0 mm 0.60 in15.2 mm 0.66 in16.8 mm
02:25 PM 63.6°F17.6°C 61.5°F16.4°C 93% 6.1 mph SW9.8 kmh SW 14.3 mph23.0 kmh 29.58 in1001.7 mb 0.08 in2.0 mm 0.00 in0.0 mm 0.66 in16.8 mm
02:30 PM 63.6°F17.6°C 61.8°F16.6°C 94% 6.7 mph WSW10.8 kmh WSW 14.3 mph23.0 kmh 29.58 in1001.7 mb 0.08 in2.0 mm 0.00 in0.0 mm 0.66 in16.8 mm
02:35 PM 63.6°F17.6°C 61.8°F16.6°C 94% 5.1 mph WSW8.2 kmh WSW 7.1 mph11.4 kmh 29.58 in1001.7 mb 0.08 in2.0 mm 0.00 in0.0 mm 0.66 in16.8 mm
02:40 PM 63.6°F17.6°C 61.8°F16.6°C 94% 4.7 mph SW7.6 kmh SW 6.5 mph10.5 kmh 29.58 in1001.7 mb 0.08 in2.0 mm 0.00 in0.0 mm 0.66 in16.8 mm
02:45 PM 63.6°F17.6°C 61.8°F16.6°C 94% 4.8 mph SW7.7 kmh SW 6.5 mph10.5 kmh 29.58 in1001.7 mb 0.09 in2.3 mm 0.12 in3.0 mm 0.70 in17.8 mm
02:50 PM 63.4°F17.4°C 61.7°F16.5°C 94% 4.9 mph SW7.9 kmh SW 7.7 mph12.4 kmh 29.58 in1001.7 mb 0.09 in2.3 mm 0.00 in0.0 mm 0.70 in17.8 mm
02:55 PM 63.4°F17.4°C 61.7°F16.5°C 94% 4.8 mph SW7.7 kmh SW 7.7 mph12.4 kmh 29.58 in1001.7 mb 0.09 in2.3 mm 0.00 in0.0 mm 0.70 in17.8 mm
03:00 PM 63.4°F17.4°C 61.7°F16.5°C 94% 5.2 mph SW8.4 kmh SW 9.8 mph15.8 kmh 29.58 in1001.7 mb 0.09 in2.3 mm 0.00 in0.0 mm 0.70 in17.8 mm
03:05 PM 63.4°F17.4°C 61.7°F16.5°C 94% 7.8 mph WSW12.6 kmh WSW 11.3 mph18.2 kmh 29.58 in1001.7 mb 0.13 in3.3 mm 0.48 in12.2 mm 0.74 in18.8 mm
03:10 PM 63.2°F17.3°C 61.5°F16.4°C 94% 10.0 mph W16.1 kmh W 12.8 mph20.6 kmh 29.58 in1001.7 mb 0.13 in3.3 mm 0.00 in0.0 mm 0.74 in18.8 mm
03:15 PM 63.2°F17.3°C 61.2°F16.2°C 93% 10.5 mph WSW16.9 kmh WSW 13.1 mph21.1 kmh 29.58 in1001.7 mb 0.13 in3.3 mm 0.00 in0.0 mm 0.74 in18.8 mm
03:20 PM 63.2°F17.3°C 61.2°F16.2°C 93% 12.8 mph W20.6 kmh W 17.6 mph28.3 kmh 29.58 in1001.7 mb 0.08 in2.0 mm 0.00 in0.0 mm 0.74 in18.8 mm
03:25 PM 63.0°F17.2°C 61.3°F16.3°C 94% 13.1 mph W21.1 kmh W 17.6 mph28.3 kmh 29.58 in1001.7 mb 0.08 in2.0 mm 0.00 in0.0 mm 0.74 in18.8 mm
03:30 PM 63.0°F17.2°C 61.3°F16.3°C 94% 13.2 mph W21.2 kmh W 17.3 mph27.8 kmh 29.58 in1001.7 mb 0.08 in2.0 mm 0.00 in0.0 mm 0.74 in18.8 mm
03:35 PM 63.0°F17.2°C 61.3°F16.3°C 94% 12.6 mph W20.3 kmh W 17.3 mph27.8 kmh 29.58 in1001.7 mb 0.08 in2.0 mm 0.00 in0.0 mm 0.74 in18.8 mm
03:40 PM 63.0°F17.2°C 61.3°F16.3°C 94% 11.2 mph W18.0 kmh W 23.5 mph37.8 kmh 29.58 in1001.7 mb 0.08 in2.0 mm 0.00 in0.0 mm 0.74 in18.8 mm
03:45 PM 63.0°F17.2°C 61.0°F16.1°C 93% 11.5 mph W18.5 kmh W 23.5 mph37.8 kmh 29.58 in1001.7 mb 0.04 in1.0 mm 0.00 in0.0 mm 0.74 in18.8 mm
03:50 PM 62.9°F17.2°C 60.8°F16.0°C 93% 12.9 mph W20.8 kmh W 23.5 mph37.8 kmh 29.58 in1001.7 mb 0.04 in1.0 mm 0.00 in0.0 mm 0.74 in18.8 mm
03:55 PM 62.9°F17.2°C 60.8°F16.0°C 93% 12.4 mph WNW20.0 kmh WNW 22.9 mph36.9 kmh 29.58 in1001.7 mb 0.04 in1.0 mm 0.00 in0.0 mm 0.74 in18.8 mm
04:00 PM 62.7°F17.1°C 60.6°F15.9°C 93% 13.5 mph W21.7 kmh W 25.3 mph40.7 kmh 29.58 in1001.7 mb 0.00 in0.0 mm 0.00 in0.0 mm 0.74 in18.8 mm
04:05 PM 62.9°F17.2°C 60.8°F16.0°C 93% 13.3 mph W21.4 kmh W 25.3 mph40.7 kmh 29.58 in1001.7 mb 0.00 in0.0 mm 0.00 in0.0 mm 0.74 in18.8 mm
04:10 PM 63.0°F17.2°C 61.0°F16.1°C 93% 12.6 mph W20.3 kmh W 15.2 mph24.5 kmh 29.58 in1001.7 mb 0.00 in0.0 mm 0.00 in0.0 mm 0.74 in18.8 mm
04:15 PM 63.0°F17.2°C 61.0°F16.1°C 93% 13.9 mph W22.4 kmh W 19.6 mph31.5 kmh 29.58 in1001.7 mb 0.00 in0.0 mm 0.00 in0.0 mm 0.74 in18.8 mm
04:20 PM 63.0°F17.2°C 61.0°F16.1°C 93% 14.5 mph W23.3 kmh W 22.9 mph36.9 kmh 29.58 in1001.7 mb 0.00 in0.0 mm 0.00 in0.0 mm 0.74 in18.8 mm
04:25 PM 63.2°F17.3°C 61.2°F16.2°C 93% 13.5 mph WSW21.7 kmh WSW 22.9 mph36.9 kmh 29.58 in1001.7 mb 0.00 in0.0 mm 0.00 in0.0 mm 0.74 in18.8 mm
04:30 PM 63.2°F17.3°C 61.2°F16.2°C 93% 12.6 mph WSW20.3 kmh WSW 16.4 mph26.4 kmh 29.58 in1001.7 mb 0.00 in0.0 mm 0.00 in0.0 mm 0.74 in18.8 mm
04:35 PM 63.2°F17.3°C 61.2°F16.2°C 93% 13.1 mph W21.1 kmh W 20.5 mph33.0 kmh 29.58 in1001.7 mb 0.00 in0.0 mm 0.00 in0.0 mm 0.74 in18.8 mm
04:40 PM 63.2°F17.3°C 61.2°F16.2°C 93% 14.5 mph W23.3 kmh W 21.1 mph34.0 kmh 29.58 in1001.7 mb 0.00 in0.0 mm 0.00 in0.0 mm 0.74 in18.8 mm
04:45 PM 63.2°F17.3°C 61.2°F16.2°C 93% 13.9 mph W22.4 kmh W 21.1 mph34.0 kmh 29.58 in1001.7 mb 0.00 in0.0 mm 0.00 in0.0 mm 0.74 in18.8 mm
04:50 PM 63.2°F17.3°C 60.9°F16.1°C 92% 13.6 mph WSW21.9 kmh WSW 21.1 mph34.0 kmh 29.58 in1001.7 mb 0.00 in0.0 mm 0.00 in0.0 mm 0.74 in18.8 mm
04:55 PM 63.0°F17.2°C 61.0°F16.1°C 93% 14.1 mph W22.7 kmh W 19.0 mph30.6 kmh 29.58 in1001.7 mb 0.00 in0.0 mm 0.00 in0.0 mm 0.74 in18.8 mm
05:00 PM 63.0°F17.2°C 61.0°F16.1°C 93% 15.2 mph WSW24.5 kmh WSW 26.2 mph42.2 kmh 29.58 in1001.7 mb 0.00 in0.0 mm 0.00 in0.0 mm 0.74 in18.8 mm
05:05 PM 63.0°F17.2°C 61.0°F16.1°C 93% 15.4 mph WSW24.8 kmh WSW 26.2 mph42.2 kmh 29.58 in1001.7 mb 0.00 in0.0 mm 0.00 in0.0 mm 0.74 in18.8 mm
05:10 PM 63.0°F17.2°C 61.0°F16.1°C 93% 17.3 mph W27.8 kmh W 23.2 mph37.3 kmh 29.61 in1002.7 mb 0.00 in0.0 mm 0.00 in0.0 mm 0.74 in18.8 mm
05:15 PM 63.0°F17.2°C 61.0°F16.1°C 93% 16.7 mph W26.9 kmh W 23.2 mph37.3 kmh 29.61 in1002.7 mb 0.00 in0.0 mm 0.00 in0.0 mm 0.74 in18.8 mm
05:20 PM 63.0°F17.2°C 61.0°F16.1°C 93% 13.6 mph W21.9 kmh W 21.1 mph34.0 kmh 29.61 in1002.7 mb 0.00 in0.0 mm 0.00 in0.0 mm 0.74 in18.8 mm
05:25 PM 63.0°F17.2°C 61.0°F16.1°C 93% 10.7 mph W17.2 kmh W 17.0 mph27.4 kmh 29.61 in1002.7 mb 0.00 in0.0 mm 0.00 in0.0 mm 0.74 in18.8 mm
05:30 PM 63.0°F17.2°C 61.0°F16.1°C 93% 9.6 mph WSW15.4 kmh WSW 13.4 mph21.6 kmh 29.61 in1002.7 mb 0.00 in0.0 mm 0.00 in0.0 mm 0.74 in18.8 mm
05:35 PM 63.0°F17.2°C 60.7°F15.9°C 92% 11.6 mph W18.7 kmh W 15.2 mph24.5 kmh 29.61 in1002.7 mb 0.00 in0.0 mm 0.00 in0.0 mm 0.74 in18.8 mm
05:40 PM 63.0°F17.2°C 60.7°F15.9°C 92% 10.7 mph W17.2 kmh W 16.1 mph25.9 kmh 29.61 in1002.7 mb 0.00 in0.0 mm 0.00 in0.0 mm 0.74 in18.8 mm
05:45 PM 63.0°F17.2°C 60.7°F15.9°C 92% 12.1 mph W19.5 kmh W 17.6 mph28.3 kmh 29.61 in1002.7 mb 0.00 in0.0 mm 0.00 in0.0 mm 0.74 in18.8 mm
05:50 PM 63.0°F17.2°C 60.7°F15.9°C 92% 15.0 mph W24.1 kmh W 22.0 mph35.4 kmh 29.61 in1002.7 mb 0.00 in0.0 mm 0.00 in0.0 mm 0.74 in18.8 mm
05:55 PM 63.0°F17.2°C 60.7°F15.9°C 92% 13.0 mph W20.9 kmh W 22.0 mph35.4 kmh 29.61 in1002.7 mb 0.00 in0.0 mm 0.00 in0.0 mm 0.74 in18.8 mm
06:00 PM 63.0°F17.2°C 60.7°F15.9°C 92% 10.2 mph WSW16.4 kmh WSW 16.1 mph25.9 kmh 29.61 in1002.7 mb 0.00 in0.0 mm 0.00 in0.0 mm 0.74 in18.8 mm
06:05 PM 62.9°F17.2°C 60.5°F15.8°C 92% 11.7 mph WSW18.8 kmh WSW 20.2 mph32.5 kmh 29.61 in1002.7 mb 0.00 in0.0 mm 0.00 in0.0 mm 0.74 in18.8 mm
06:10 PM 62.9°F17.2°C 60.5°F15.8°C 92% 13.8 mph WSW22.2 kmh WSW 20.2 mph32.5 kmh 29.61 in1002.7 mb 0.00 in0.0 mm 0.00 in0.0 mm 0.74 in18.8 mm
06:15 PM 62.9°F17.2°C 60.5°F15.8°C 92% 14.9 mph WSW24.0 kmh WSW 21.4 mph34.4 kmh 29.61 in1002.7 mb 0.00 in0.0 mm 0.00 in0.0 mm 0.74 in18.8 mm
06:20 PM 62.9°F17.2°C 60.5°F15.8°C 92% 14.6 mph WSW23.5 kmh WSW 21.4 mph34.4 kmh 29.61 in1002.7 mb 0.00 in0.0 mm 0.00 in0.0 mm 0.74 in18.8 mm
06:25 PM 62.9°F17.2°C 60.5°F15.8°C 92% 13.9 mph W22.4 kmh W 17.3 mph27.8 kmh 29.61 in1002.7 mb 0.00 in0.0 mm 0.00 in0.0 mm 0.74 in18.8 mm
06:30 PM 62.7°F17.1°C 60.3°F15.7°C 92% 14.1 mph W22.7 kmh W 18.4 mph29.6 kmh 29.61 in1002.7 mb 0.00 in0.0 mm 0.00 in0.0 mm 0.74 in18.8 mm
06:35 PM 62.7°F17.1°C 60.3°F15.7°C 92% 12.1 mph W19.5 kmh W 20.8 mph33.5 kmh 29.61 in1002.7 mb 0.00 in0.0 mm 0.00 in0.0 mm 0.74 in18.8 mm
06:40 PM 62.7°F17.1°C 60.3°F15.7°C 92% 12.3 mph W19.8 kmh W 20.8 mph33.5 kmh 29.61 in1002.7 mb 0.00 in0.0 mm 0.00 in0.0 mm 0.74 in18.8 mm
06:45 PM 62.7°F17.1°C 60.3°F15.7°C 92% 12.5 mph WSW20.1 kmh WSW 20.2 mph32.5 kmh 29.61 in1002.7 mb 0.00 in0.0 mm 0.00 in0.0 mm 0.74 in18.8 mm
06:50 PM 62.5°F16.9°C 60.2°F15.7°C 92% 11.4 mph WSW18.3 kmh WSW 20.2 mph32.5 kmh 29.61 in1002.7 mb 0.00 in0.0 mm 0.00 in0.0 mm 0.74 in18.8 mm
06:55 PM 62.3°F16.8°C 59.7°F15.4°C 91% 12.6 mph W20.3 kmh W 17.6 mph28.3 kmh 29.61 in1002.7 mb 0.00 in0.0 mm 0.00 in0.0 mm 0.74 in18.8 mm
07:00 PM 62.3°F16.8°C 59.7°F15.4°C 91% 14.2 mph W22.9 kmh W 23.2 mph37.3 kmh 29.61 in1002.7 mb 0.00 in0.0 mm 0.00 in0.0 mm 0.74 in18.8 mm
07:05 PM 62.3°F16.8°C 59.7°F15.4°C 91% 12.7 mph W20.4 kmh W 23.2 mph37.3 kmh 29.61 in1002.7 mb 0.00 in0.0 mm 0.00 in0.0 mm 0.74 in18.8 mm
07:10 PM 62.3°F16.8°C 59.7°F15.4°C 91% 12.3 mph W19.8 kmh W 19.6 mph31.5 kmh 29.64 in1003.7 mb 0.00 in0.0 mm 0.00 in0.0 mm 0.74 in18.8 mm
07:15 PM 62.3°F16.8°C 59.7°F15.4°C 91% 12.0 mph W19.3 kmh W 17.9 mph28.8 kmh 29.64 in1003.7 mb 0.00 in0.0 mm 0.00 in0.0 mm 0.74 in18.8 mm
07:20 PM 62.3°F16.8°C 59.7°F15.4°C 91% 11.1 mph W17.9 kmh W 15.2 mph24.5 kmh 29.64 in1003.7 mb 0.00 in0.0 mm 0.00 in0.0 mm 0.74 in18.8 mm
07:25 PM 62.3°F16.8°C 59.7°F15.4°C 91% 11.5 mph WSW18.5 kmh WSW 15.8 mph25.4 kmh 29.61 in1002.7 mb 0.00 in0.0 mm 0.00 in0.0 mm 0.74 in18.8 mm
07:30 PM 62.3°F16.8°C 59.7°F15.4°C 91% 11.9 mph W19.2 kmh W 15.8 mph25.4 kmh 29.61 in1002.7 mb 0.00 in0.0 mm 0.00 in0.0 mm 0.74 in18.8 mm
07:35 PM 62.2°F16.8°C 59.5°F15.3°C 91% 11.8 mph W19.0 kmh W 16.7 mph26.9 kmh 29.61 in1002.7 mb 0.00 in0.0 mm 0.00 in0.0 mm 0.74 in18.8 mm
07:40 PM 62.2°F16.8°C 59.5°F15.3°C 91% 12.3 mph W19.8 kmh W 16.7 mph26.9 kmh 29.64 in1003.7 mb 0.00 in0.0 mm 0.00 in0.0 mm 0.74 in18.8 mm
07:45 PM 62.2°F16.8°C 59.5°F15.3°C 91% 12.0 mph W19.3 kmh W 15.8 mph25.4 kmh 29.64 in1003.7 mb 0.00 in0.0 mm 0.00 in0.0 mm 0.74 in18.8 mm
07:50 PM 62.0°F16.7°C 59.3°F15.2°C 91% 13.1 mph W21.1 kmh W 22.3 mph35.9 kmh 29.64 in1003.7 mb 0.00 in0.0 mm 0.00 in0.0 mm 0.74 in18.8 mm
07:55 PM 62.0°F16.7°C 59.3°F15.2°C 91% 13.5 mph W21.7 kmh W 22.3 mph35.9 kmh 29.64 in1003.7 mb 0.00 in0.0 mm 0.00 in0.0 mm 0.74 in18.8 mm
08:00 PM 62.0°F16.7°C 59.3°F15.2°C 91% 11.5 mph W18.5 kmh W 20.2 mph32.5 kmh 29.64 in1003.7 mb 0.00 in0.0 mm 0.00 in0.0 mm 0.74 in18.8 mm
08:05 PM 62.0°F16.7°C 59.0°F15.0°C 90% 12.1 mph WSW19.5 kmh WSW 17.3 mph27.8 kmh 29.64 in1003.7 mb 0.00 in0.0 mm 0.00 in0.0 mm 0.74 in18.8 mm
08:10 PM 62.0°F16.7°C 59.0°F15.0°C 90% 13.9 mph W22.4 kmh W 20.5 mph33.0 kmh 29.64 in1003.7 mb 0.00 in0.0 mm 0.00 in0.0 mm 0.74 in18.8 mm
08:15 PM 62.2°F16.8°C 59.2°F15.1°C 90% 15.7 mph W25.3 kmh W 23.5 mph37.8 kmh 29.64 in1003.7 mb 0.00 in0.0 mm 0.00 in0.0 mm 0.74 in18.8 mm
08:20 PM 62.2°F16.8°C 59.2°F15.1°C 90% 14.5 mph WSW23.3 kmh WSW 23.5 mph37.8 kmh 29.64 in1003.7 mb 0.00 in0.0 mm 0.00 in0.0 mm 0.74 in18.8 mm
08:25 PM 62.2°F16.8°C 59.2°F15.1°C 90% 11.7 mph WSW18.8 kmh WSW 16.1 mph25.9 kmh 29.64 in1003.7 mb 0.00 in0.0 mm 0.00 in0.0 mm 0.74 in18.8 mm
08:30 PM 62.0°F16.7°C 59.0°F15.0°C 90% 10.8 mph W17.4 kmh W 14.0 mph22.5 kmh 29.64 in1003.7 mb 0.00 in0.0 mm 0.00 in0.0 mm 0.74 in18.8 mm
08:35 PM 61.8°F16.6°C 58.5°F14.7°C 89% 13.0 mph W20.9 kmh W 17.6 mph28.3 kmh 29.64 in1003.7 mb 0.00 in0.0 mm 0.00 in0.0 mm 0.74 in18.8 mm
08:40 PM 61.8°F16.6°C 58.5°F14.7°C 89% 15.1 mph W24.3 kmh W 20.2 mph32.5 kmh 29.64 in1003.7 mb 0.00 in0.0 mm 0.00 in0.0 mm 0.74 in18.8 mm
08:45 PM 61.8°F16.6°C 58.5°F14.7°C 89% 14.8 mph W23.8 kmh W 20.2 mph32.5 kmh 29.64 in1003.7 mb 0.00 in0.0 mm 0.00 in0.0 mm 0.74 in18.8 mm
08:50 PM 61.8°F16.6°C 58.5°F14.7°C 89% 12.7 mph W20.4 kmh W 18.1 mph29.1 kmh 29.64 in1003.7 mb 0.00 in0.0 mm 0.00 in0.0 mm 0.74 in18.8 mm
08:55 PM 61.6°F16.4°C 58.3°F14.6°C 89% 12.5 mph W20.1 kmh W 22.9 mph36.9 kmh 29.64 in1003.7 mb 0.00 in0.0 mm 0.00 in0.0 mm 0.74 in18.8 mm
09:00 PM 61.4°F16.3°C 58.2°F14.6°C 89% 15.1 mph W24.3 kmh W 22.9 mph36.9 kmh 29.64 in1003.7 mb 0.00 in0.0 mm 0.00 in0.0 mm 0.74 in18.8 mm
09:05 PM 61.3°F16.3°C 58.0°F14.4°C 89% 15.6 mph W25.1 kmh W 22.9 mph36.9 kmh 29.64 in1003.7 mb 0.00 in0.0 mm 0.00 in0.0 mm 0.74 in18.8 mm
09:10 PM 61.3°F16.3°C 58.0°F14.4°C 89% 15.5 mph W24.9 kmh W 22.6 mph36.4 kmh 29.64 in1003.7 mb 0.00 in0.0 mm 0.00 in0.0 mm 0.74 in18.8 mm
09:15 PM 61.3°F16.3°C 57.7°F14.3°C 88% 18.6 mph W29.9 kmh W 25.6 mph41.2 kmh 29.64 in1003.7 mb 0.00 in0.0 mm 0.00 in0.0 mm 0.74 in18.8 mm
09:20 PM 61.3°F16.3°C 57.7°F14.3°C 88% 18.4 mph WSW29.6 kmh WSW 25.9 mph41.7 kmh 29.64 in1003.7 mb 0.00 in0.0 mm 0.00 in0.0 mm 0.74 in18.8 mm
09:25 PM 61.3°F16.3°C 57.3°F14.1°C 87% 16.2 mph WSW26.1 kmh WSW 25.9 mph41.7 kmh 29.64 in1003.7 mb 0.00 in0.0 mm 0.00 in0.0 mm 0.74 in18.8 mm
09:30 PM 61.1°F16.2°C 57.2°F14.0°C 87% 14.9 mph WSW24.0 kmh WSW 23.2 mph37.3 kmh 29.64 in1003.7 mb 0.00 in0.0 mm 0.00 in0.0 mm 0.74 in18.8 mm
09:35 PM 61.1°F16.2°C 57.2°F14.0°C 87% 15.0 mph W24.1 kmh W 23.2 mph37.3 kmh 29.64 in1003.7 mb 0.00 in0.0 mm 0.00 in0.0 mm 0.74 in18.8 mm
09:40 PM 61.1°F16.2°C 57.2°F14.0°C 87% 14.5 mph W23.3 kmh W 22.9 mph36.9 kmh 29.67 in1004.7 mb 0.00 in0.0 mm 0.00 in0.0 mm 0.74 in18.8 mm
09:45 PM 61.1°F16.2°C 57.2°F14.0°C 87% 13.3 mph W21.4 kmh W 22.9 mph36.9 kmh 29.67 in1004.7 mb 0.00 in0.0 mm 0.00 in0.0 mm 0.74 in18.8 mm
09:50 PM 61.1°F16.2°C 57.2°F14.0°C 87% 11.8 mph W19.0 kmh W 19.6 mph31.5 kmh 29.67 in1004.7 mb 0.00 in0.0 mm 0.00 in0.0 mm 0.74 in18.8 mm
09:55 PM 61.1°F16.2°C 57.2°F14.0°C 87% 14.0 mph W22.5 kmh W 24.1 mph38.8 kmh 29.64 in1003.7 mb 0.00 in0.0 mm 0.00 in0.0 mm 0.74 in18.8 mm
10:00 PM 61.1°F16.2°C 57.2°F14.0°C 87% 15.3 mph W24.6 kmh W 24.1 mph38.8 kmh 29.64 in1003.7 mb 0.00 in0.0 mm 0.00 in0.0 mm 0.74 in18.8 mm
10:05 PM 61.1°F16.2°C 57.2°F14.0°C 87% 13.8 mph WSW22.2 kmh WSW 22.9 mph36.9 kmh 29.64 in1003.7 mb 0.00 in0.0 mm 0.00 in0.0 mm 0.74 in18.8 mm
10:10 PM 61.1°F16.2°C 57.2°F14.0°C 87% 12.4 mph W20.0 kmh W 20.2 mph32.5 kmh 29.67 in1004.7 mb 0.00 in0.0 mm 0.00 in0.0 mm 0.74 in18.8 mm
10:15 PM 61.1°F16.2°C 57.2°F14.0°C 87% 12.5 mph W20.1 kmh W 21.7 mph34.9 kmh 29.67 in1004.7 mb 0.00 in0.0 mm 0.00 in0.0 mm 0.74 in18.8 mm
10:20 PM 61.1°F16.2°C 57.2°F14.0°C 87% 13.8 mph W22.2 kmh W 21.7 mph34.9 kmh 29.67 in1004.7 mb 0.00 in0.0 mm 0.00 in0.0 mm 0.74 in18.8 mm
10:25 PM 61.1°F16.2°C 57.2°F14.0°C 87% 13.5 mph W21.7 kmh W 19.6 mph31.5 kmh 29.67 in1004.7 mb 0.00 in0.0 mm 0.00 in0.0 mm 0.74 in18.8 mm
10:30 PM 61.1°F16.2°C 57.2°F14.0°C 87% 13.1 mph W21.1 kmh W 20.2 mph32.5 kmh 29.67 in1004.7 mb 0.00 in0.0 mm 0.00 in0.0 mm 0.74 in18.8 mm
10:35 PM 61.1°F16.2°C 57.2°F14.0°C 87% 14.3 mph W23.0 kmh W 24.1 mph38.8 kmh 29.67 in1004.7 mb 0.00 in0.0 mm 0.00 in0.0 mm 0.74 in18.8 mm
10:40 PM 61.1°F16.2°C 57.2°F14.0°C 87% 14.7 mph W23.7 kmh W 24.1 mph38.8 kmh 29.67 in1004.7 mb 0.00 in0.0 mm 0.00 in0.0 mm 0.74 in18.8 mm
10:45 PM 61.1°F16.2°C 57.2°F14.0°C 87% 13.4 mph W21.6 kmh W 20.5 mph33.0 kmh 29.67 in1004.7 mb 0.00 in0.0 mm 0.00 in0.0 mm 0.74 in18.8 mm
10:50 PM 61.1°F16.2°C 57.2°F14.0°C 87% 13.5 mph W21.7 kmh W 17.9 mph28.8 kmh 29.67 in1004.7 mb 0.00 in0.0 mm 0.00 in0.0 mm 0.74 in18.8 mm
10:55 PM 61.1°F16.2°C 57.2°F14.0°C 87% 14.5 mph W23.3 kmh W 20.5 mph33.0 kmh 29.67 in1004.7 mb 0.00 in0.0 mm 0.00 in0.0 mm 0.74 in18.8 mm
11:00 PM 61.1°F16.2°C 57.2°F14.0°C 87% 13.5 mph W21.7 kmh W 20.5 mph33.0 kmh 29.67 in1004.7 mb 0.00 in0.0 mm 0.00 in0.0 mm 0.43 in10.9 mm
11:05 PM 61.1°F16.2°C 57.2°F14.0°C 87% 11.3 mph W18.2 kmh W 18.4 mph29.6 kmh 29.67 in1004.7 mb 0.00 in0.0 mm 0.00 in0.0 mm 0.43 in10.9 mm
11:10 PM 60.9°F16.1°C 57.0°F13.9°C 87% 11.5 mph WSW18.5 kmh WSW 18.4 mph29.6 kmh 29.67 in1004.7 mb 0.00 in0.0 mm 0.00 in0.0 mm 0.43 in10.9 mm
11:15 PM 60.7°F15.9°C 56.8°F13.8°C 87% 15.3 mph WSW24.6 kmh WSW 20.2 mph32.5 kmh 29.67 in1004.7 mb 0.00 in0.0 mm 0.00 in0.0 mm 0.43 in10.9 mm
11:20 PM 60.7°F15.9°C 57.1°F13.9°C 88% 15.1 mph W24.3 kmh W 20.2 mph32.5 kmh 29.67 in1004.7 mb 0.00 in0.0 mm 0.00 in0.0 mm 0.43 in10.9 mm
11:25 PM 60.7°F15.9°C 57.1°F13.9°C 88% 12.9 mph W20.8 kmh W 16.4 mph26.4 kmh 29.67 in1004.7 mb 0.00 in0.0 mm 0.00 in0.0 mm 0.43 in10.9 mm
11:30 PM 60.7°F15.9°C 57.1°F13.9°C 88% 13.6 mph W21.9 kmh W 19.3 mph31.1 kmh 29.67 in1004.7 mb 0.00 in0.0 mm 0.00 in0.0 mm 0.43 in10.9 mm
11:35 PM 60.7°F15.9°C 57.1°F13.9°C 88% 11.5 mph W18.5 kmh W 19.3 mph31.1 kmh 29.67 in1004.7 mb 0.00 in0.0 mm 0.00 in0.0 mm 0.43 in10.9 mm
11:40 PM 60.7°F15.9°C 56.8°F13.8°C 87% 10.0 mph W16.1 kmh W 16.7 mph26.9 kmh 29.67 in1004.7 mb 0.00 in0.0 mm 0.00 in0.0 mm 0.43 in10.9 mm
11:45 PM 60.7°F15.9°C 56.8°F13.8°C 87% 11.2 mph WNW18.0 kmh WNW 16.7 mph26.9 kmh 29.67 in1004.7 mb 0.00 in0.0 mm 0.00 in0.0 mm 0.43 in10.9 mm
11:50 PM 60.5°F15.8°C 56.6°F13.7°C 87% 10.2 mph WNW16.4 kmh WNW 16.7 mph26.9 kmh 29.67 in1004.7 mb 0.00 in0.0 mm 0.00 in0.0 mm 0.43 in10.9 mm
11:55 PM 60.5°F15.8°C 56.3°F13.5°C 86% 9.5 mph WNW15.3 kmh WNW 14.0 mph22.5 kmh 29.67 in1004.7 mb 0.00 in0.0 mm 0.00 in0.0 mm 0.43 in10.9 mm